KDFW/DFW METAR and TAF weather

Enter ICAO airport designator
Station Type Date Time Source
KDFW METAR 2020/03/31 13:07 UTC NOAA

KDFW 311307Z 33009KT 10SM FEW010 SCT018 SCT030 12/10 A3003 RMK AO2 T01170100


Station Type Date Time Source
KDFW Decoded METAR 2020/03/31 13:07 UTC NOAA

DALLAS/FT. WORTH INTERNATIONAL AIRPORT , TX, United States (KDFW) 32-54N 097-02W 174M
Mar 31, 2020 - 09:07 AM EDT / 2020.03.31 1307 UTC
Wind: from the NNW (330 degrees) at 10 MPH (9 KT):0
Visibility: 10 mile(s):0
Sky conditions: partly cloudy
Temperature: 53.1 F (11.7 C)
Dew Point: 50.0 F (10.0 C)
Relative Humidity: 89%
Pressure (altimeter): 30.03 in. Hg (1016 hPa)
ob: KDFW 311307Z 33009KT 10SM FEW010 SCT018 SCT030 12/10 A3003 RMK AO2 T01170100
cycle: 13

Station Type Date Time Source
KDFW TAF 2020/03/31 12:22 UTC NOAA

TAF KDFW 311120Z 3112/0118 33014KT P6SM OVC012
TEMPO 3112/3114 OVC009
FM311600 34015KT P6SM SCT020 BKN035
FM312000 36009KT P6SM SCT040 BKN300
FM010000 03005KT P6SM SCT300
FM010600 15005KT P6SM SCT250

Example: see airport list